createdAt,value
2018-03-29T00:01:57.718Z,29.40
2018-03-29T00:04:25.623Z,10.90
2018-03-29T00:06:53.915Z,41.10
2018-03-29T00:09:21.455Z,26.07
2018-03-29T00:11:48.995Z,7.70
2018-03-29T00:14:16.529Z,13.67
2018-03-29T00:16:44.506Z,20.90
2018-03-29T00:19:12.047Z,9.30
2018-03-29T00:21:39.599Z,15.53
2018-03-29T00:24:07.924Z,19.60
2018-03-29T00:26:35.447Z,5.00
2018-03-29T00:29:02.994Z,15.70
2018-03-29T00:31:30.521Z,10.40
2018-03-29T00:34:00.018Z,37.80
2018-03-29T00:36:27.567Z,10.20
2018-03-29T00:38:55.125Z,9.57
2018-03-29T00:41:23.616Z,26.93
2018-03-29T00:43:51.122Z,3.37
2018-03-29T00:46:18.674Z,33.43
2018-03-29T00:48:46.202Z,10.10
2018-03-29T00:51:14.533Z,6.93
2018-03-29T00:53:44.987Z,6.70
2018-03-29T00:56:12.531Z,2.63
2018-03-29T00:58:40.046Z,2.97
2018-03-29T01:01:08.368Z,2.60
2018-03-29T01:03:35.892Z,3.07
2018-03-29T01:06:04.396Z,6.03
2018-03-29T01:08:36.542Z,3.53
2018-03-29T01:11:04.066Z,7.80
2018-03-29T01:13:32.370Z,4.03
2018-03-29T01:16:00.646Z,5.87
2018-03-29T01:18:28.199Z,21.80
2018-03-29T01:20:56.507Z,26.37
2018-03-29T01:23:24.053Z,6.07
2018-03-29T01:25:51.576Z,6.13
2018-03-29T01:28:21.863Z,13.73
2018-03-29T01:30:50.028Z,4.00
2018-03-29T01:33:17.560Z,3.90
2018-03-29T01:35:45.102Z,5.80
2018-03-29T01:38:13.391Z,6.97
2018-03-29T01:40:41.075Z,4.07
2018-03-29T01:43:08.595Z,5.83
2018-03-29T01:45:36.917Z,4.50
2018-03-29T01:48:04.426Z,3.40
2018-03-29T01:50:31.951Z,6.33
2018-03-29T01:52:59.495Z,11.97
2018-03-29T01:55:27.021Z,25.20
2018-03-29T01:57:54.573Z,3.90
2018-03-29T02:00:22.850Z,10.93
2018-03-29T02:02:50.400Z,9.20
2018-03-29T02:05:18.904Z,7.27
2018-03-29T02:07:46.495Z,7.20
2018-03-29T02:10:13.995Z,9.70
2018-03-29T02:12:42.270Z,3.93
2018-03-29T02:15:09.826Z,17.87
2018-03-29T02:17:38.159Z,4.40
2018-03-29T02:20:06.575Z,5.80
2018-03-29T02:22:34.093Z,5.63
2018-03-29T02:25:01.676Z,7.30
2018-03-29T02:27:29.177Z,5.70
2018-03-29T02:29:56.721Z,6.10
2018-03-29T02:32:25.021Z,7.27
2018-03-29T02:34:52.545Z,5.20
2018-03-29T02:37:20.119Z,11.83
2018-03-29T02:39:47.646Z,5.47
2018-03-29T02:42:17.248Z,3.90
2018-03-29T02:44:44.779Z,4.50
2018-03-29T02:47:12.338Z,4.97
2018-03-29T02:49:39.881Z,6.70
2018-03-29T02:52:07.434Z,17.67
2018-03-29T02:54:34.965Z,6.17
2018-03-29T02:57:03.292Z,5.30
2018-03-29T02:59:30.828Z,6.03
2018-03-29T03:01:58.355Z,4.37
2018-03-29T03:04:25.909Z,5.07
2018-03-29T03:06:53.434Z,5.50
2018-03-29T03:09:21.000Z,5.93
2018-03-29T03:11:48.527Z,9.30
2018-03-29T03:14:16.075Z,4.60
2018-03-29T03:16:43.590Z,4.07
2018-03-29T03:19:11.145Z,8.10
2018-03-29T03:21:38.691Z,5.23
2018-03-29T03:24:06.211Z,5.17
2018-03-29T03:26:34.524Z,4.63
2018-03-29T03:29:02.046Z,4.57
2018-03-29T03:31:29.598Z,5.60
2018-03-29T03:33:57.140Z,4.73
2018-03-29T03:36:25.714Z,5.00
2018-03-29T03:38:53.232Z,5.43
2018-03-29T03:41:20.762Z,5.00
2018-03-29T03:43:48.324Z,25.53
2018-03-29T03:46:15.837Z,9.07
2018-03-29T03:48:43.379Z,4.90
2018-03-29T03:51:10.898Z,5.00
2018-03-29T03:53:38.443Z,4.73
2018-03-29T03:56:05.964Z,4.57
2018-03-29T03:58:33.479Z,5.20
2018-03-29T04:01:01.038Z,5.73
2018-03-29T04:03:28.566Z,6.50
2018-03-29T04:05:56.124Z,10.53
2018-03-29T04:08:23.648Z,10.00
2018-03-29T04:10:51.163Z,5.40
2018-03-29T04:13:21.422Z,5.07
2018-03-29T04:15:48.942Z,8.53
2018-03-29T04:18:17.692Z,6.03
2018-03-29T04:20:45.978Z,6.10
2018-03-29T04:23:13.521Z,6.30
2018-03-29T04:25:41.046Z,18.90
2018-03-29T04:28:09.541Z,9.30
2018-03-29T04:30:37.089Z,5.80
2018-03-29T04:33:04.606Z,6.73
2018-03-29T04:35:32.162Z,8.73
2018-03-29T04:37:59.682Z,15.77
2018-03-29T04:40:27.230Z,6.80
2018-03-29T04:42:54.752Z,26.63
2018-03-29T04:45:22.283Z,9.00
2018-03-29T04:47:49.844Z,9.70
2018-03-29T04:50:18.347Z,9.50
2018-03-29T04:52:47.871Z,10.50
2018-03-29T04:55:15.398Z,9.27
2018-03-29T04:57:42.946Z,9.37
2018-03-29T05:00:11.564Z,9.50
2018-03-29T05:02:39.087Z,13.10
2018-03-29T05:05:06.653Z,11.60
2018-03-29T05:07:34.177Z,16.40
2018-03-29T05:10:01.748Z,15.33
2018-03-29T05:12:29.279Z,13.27
2018-03-29T05:14:56.845Z,10.67
2018-03-29T05:17:25.380Z,10.40
2018-03-29T05:19:53.867Z,10.30
2018-03-29T05:22:22.174Z,10.60
2018-03-29T05:24:49.695Z,9.87
2018-03-29T05:27:19.151Z,9.80
2018-03-29T05:29:46.670Z,10.97
2018-03-29T05:32:14.989Z,10.83
2018-03-29T05:34:42.517Z,10.70
2018-03-29T05:37:11.352Z,10.13
2018-03-29T05:39:38.964Z,10.77
2018-03-29T05:42:06.538Z,10.50
2018-03-29T05:44:34.097Z,10.77
2018-03-29T05:47:01.622Z,10.80
2018-03-29T05:49:29.935Z,11.93
2018-03-29T05:51:57.595Z,10.80
2018-03-29T05:54:26.120Z,10.67
2018-03-29T05:56:53.646Z,9.50
2018-03-29T05:59:21.167Z,10.60
2018-03-29T06:01:50.473Z,11.47
2018-03-29T06:04:17.995Z,9.73
2018-03-29T06:06:45.552Z,9.83
2018-03-29T06:09:13.102Z,10.20
2018-03-29T06:11:40.671Z,11.50
2018-03-29T06:14:08.991Z,10.77
2018-03-29T06:16:42.214Z,11.50
2018-03-29T06:19:09.753Z,10.87
2018-03-29T06:21:37.278Z,11.40
2018-03-29T06:24:04.860Z,11.40
2018-03-29T06:26:33.350Z,11.03
2018-03-29T06:29:00.914Z,10.63
2018-03-29T06:31:28.439Z,10.90
2018-03-29T06:33:55.990Z,11.53
2018-03-29T06:36:25.312Z,12.30
2018-03-29T06:38:54.799Z,12.50
2018-03-29T06:41:22.336Z,11.70
2018-03-29T06:43:49.870Z,12.77
2018-03-29T06:46:17.426Z,13.27
2018-03-29T06:48:44.958Z,11.73
2018-03-29T06:51:12.518Z,10.43
2018-03-29T06:53:40.034Z,10.57
2018-03-29T06:56:07.594Z,9.80
2018-03-29T06:58:35.137Z,10.10
2018-03-29T07:01:02.760Z,10.50
2018-03-29T07:03:30.253Z,11.17
2018-03-29T07:05:57.779Z,11.00
2018-03-29T07:08:26.310Z,12.20
2018-03-29T07:10:53.843Z,11.07
2018-03-29T07:13:21.393Z,11.70
2018-03-29T07:15:48.919Z,12.40
2018-03-29T07:18:16.445Z,12.00
2018-03-29T07:20:44.006Z,12.50
2018-03-29T07:23:11.531Z,11.10
2018-03-29T07:25:39.076Z,11.60
2018-03-29T07:28:06.597Z,11.80
2018-03-29T07:30:34.979Z,11.40
2018-03-29T07:33:02.477Z,10.80
2018-03-29T07:35:30.125Z,11.00
2018-03-29T07:37:57.698Z,11.27
2018-03-29T07:40:25.222Z,11.60
2018-03-29T07:42:52.768Z,11.60
2018-03-29T07:45:20.314Z,12.30
2018-03-29T07:47:47.874Z,11.80
2018-03-29T07:50:15.439Z,11.60
2018-03-29T07:52:42.965Z,10.70
2018-03-29T07:55:10.522Z,9.65
2018-03-29T07:57:38.046Z,9.73
2018-03-29T08:00:05.999Z,11.70
2018-03-29T08:02:34.308Z,10.57
2018-03-29T08:05:01.842Z,10.90
2018-03-29T08:07:29.419Z,10.10
2018-03-29T08:09:56.947Z,10.20
2018-03-29T08:12:27.211Z,11.63
2018-03-29T08:14:54.728Z,10.20
2018-03-29T08:17:22.258Z,9.67
2018-03-29T08:19:49.823Z,8.83
2018-03-29T08:22:17.348Z,9.77
2018-03-29T08:24:44.909Z,9.63
2018-03-29T08:27:12.441Z,9.23
2018-03-29T08:29:39.973Z,8.60
2018-03-29T08:32:08.298Z,10.00
2018-03-29T08:34:35.818Z,9.03
2018-03-29T08:37:04.138Z,8.10
2018-03-29T08:39:31.672Z,8.30
2018-03-29T08:41:59.189Z,7.90
2018-03-29T08:44:26.746Z,8.40
2018-03-29T08:46:54.270Z,8.83
2018-03-29T08:49:21.814Z,9.17
2018-03-29T08:51:51.031Z,8.23
2018-03-29T08:54:24.497Z,7.90
2018-03-29T08:56:52.017Z,7.67
2018-03-29T08:59:19.535Z,6.43
2018-03-29T09:01:47.185Z,6.87
2018-03-29T09:04:14.746Z,6.70
2018-03-29T09:06:42.284Z,5.73
2018-03-29T09:09:09.813Z,4.80
2018-03-29T09:11:37.330Z,6.27
2018-03-29T09:14:06.879Z,5.40
2018-03-29T09:16:34.406Z,4.67
2018-03-29T09:19:01.959Z,5.53
2018-03-29T09:21:29.496Z,6.73
2018-03-29T09:23:57.167Z,5.67
2018-03-29T09:26:26.642Z,5.40
2018-03-29T09:28:54.926Z,5.37
2018-03-29T09:31:23.236Z,5.73
2018-03-29T09:33:50.754Z,5.83
2018-03-29T09:36:18.291Z,6.40
2018-03-29T09:38:46.590Z,7.10
2018-03-29T09:41:14.277Z,6.40
2018-03-29T09:43:44.299Z,6.80
2018-03-29T09:46:12.855Z,6.60
2018-03-29T09:48:40.434Z,7.67
2018-03-29T09:51:07.958Z,6.63
2018-03-29T09:53:35.506Z,5.63
2018-03-29T09:56:03.027Z,6.47
2018-03-29T09:58:30.560Z,8.40
2018-03-29T10:01:03.778Z,6.37
2018-03-29T10:03:31.305Z,6.60
2018-03-29T10:06:04.811Z,6.03
2018-03-29T10:08:32.334Z,6.10
2018-03-29T10:11:00.652Z,5.80
2018-03-29T10:13:28.174Z,6.43
2018-03-29T10:15:56.477Z,7.30
2018-03-29T10:18:24.022Z,6.50
2018-03-29T10:20:51.558Z,6.00
2018-03-29T10:23:21.046Z,6.63
2018-03-29T10:25:48.631Z,5.80
2018-03-29T10:28:16.956Z,5.23
2018-03-29T10:30:44.508Z,4.33
2018-03-29T10:33:12.070Z,3.70
2018-03-29T10:35:39.627Z,3.53
2018-03-29T10:38:07.138Z,3.20
2018-03-29T10:40:34.718Z,2.93
2018-03-29T10:43:03.198Z,4.13
2018-03-29T10:45:30.759Z,3.20
2018-03-29T10:47:58.276Z,4.17
2018-03-29T10:50:25.834Z,7.00
2018-03-29T10:52:53.383Z,3.90
2018-03-29T10:55:20.948Z,3.43
2018-03-29T10:57:48.501Z,2.20
2018-03-29T11:00:16.975Z,1.97
2018-03-29T11:02:44.527Z,2.10
2018-03-29T11:05:12.049Z,1.83
2018-03-29T11:07:39.668Z,4.23
2018-03-29T11:10:08.152Z,2.90
2018-03-29T11:12:35.700Z,2.23
2018-03-29T11:15:03.223Z,2.40
2018-03-29T11:17:30.766Z,2.33
2018-03-29T11:19:58.342Z,1.70
2018-03-29T11:22:25.867Z,1.83
2018-03-29T11:24:53.422Z,1.80
2018-03-29T11:27:20.942Z,1.40
2018-03-29T11:29:48.494Z,1.70
2018-03-29T11:32:16.022Z,1.50
2018-03-29T11:34:43.548Z,1.50
2018-03-29T11:37:11.098Z,1.30
2018-03-29T11:39:38.760Z,1.30
2018-03-29T11:42:06.302Z,1.40
2018-03-29T11:44:33.826Z,1.50
2018-03-29T11:47:01.396Z,1.33
2018-03-29T11:49:28.930Z,2.07
2018-03-29T11:51:57.219Z,2.07
2018-03-29T11:54:24.778Z,1.70
2018-03-29T11:56:52.293Z,1.70
2018-03-29T11:59:21.823Z,1.70
2018-03-29T12:01:50.118Z,1.80
2018-03-29T12:04:17.708Z,1.70
2018-03-29T12:06:45.202Z,1.60
2018-03-29T12:09:12.745Z,1.67
2018-03-29T12:11:40.263Z,1.87
2018-03-29T12:14:08.754Z,2.27
2018-03-29T12:16:36.329Z,1.93
2018-03-29T12:19:03.842Z,2.00
2018-03-29T12:21:31.422Z,1.57
2018-03-29T12:23:58.946Z,1.50
2018-03-29T12:26:27.477Z,1.63
2018-03-29T12:28:54.998Z,2.20
2018-03-29T12:31:22.550Z,2.10
2018-03-29T12:33:50.833Z,2.33
2018-03-29T12:36:18.390Z,2.40
2018-03-29T12:38:46.712Z,2.10
2018-03-29T12:41:14.231Z,1.83
2018-03-29T12:43:41.910Z,1.90
2018-03-29T12:46:09.427Z,2.10
2018-03-29T12:48:36.987Z,2.73
2018-03-29T12:51:04.591Z,2.90
2018-03-29T12:53:32.886Z,2.73
2018-03-29T12:56:00.412Z,3.03
2018-03-29T12:58:27.933Z,3.40
2018-03-29T13:00:55.564Z,2.70
2018-03-29T13:03:23.095Z,2.70
2018-03-29T13:05:50.633Z,2.70
2018-03-29T13:08:18.153Z,3.60
2018-03-29T13:10:45.703Z,2.53
2018-03-29T13:13:13.246Z,2.43
2018-03-29T13:15:40.757Z,2.50
2018-03-29T13:18:09.062Z,2.70
2018-03-29T13:20:36.583Z,1.83
2018-03-29T13:23:04.122Z,4.27
2018-03-29T13:25:32.675Z,4.00
2018-03-29T13:28:02.013Z,3.27
2018-03-29T13:30:29.570Z,2.83
2018-03-29T13:32:57.114Z,2.10
2018-03-29T13:35:24.666Z,2.10
2018-03-29T13:37:53.174Z,2.40
2018-03-29T13:40:20.738Z,2.30
2018-03-29T13:42:48.255Z,5.23
2018-03-29T13:45:16.776Z,4.40
2018-03-29T13:47:44.302Z,2.17
2018-03-29T13:50:11.856Z,2.30
2018-03-29T13:52:39.407Z,2.30
2018-03-29T13:55:06.960Z,2.70
2018-03-29T13:57:34.846Z,2.23
2018-03-29T14:00:03.176Z,2.53
2018-03-29T14:02:30.985Z,2.30
2018-03-29T14:04:58.563Z,2.00
2018-03-29T14:07:26.121Z,1.80
2018-03-29T14:09:53.638Z,2.00
2018-03-29T14:12:21.189Z,1.90
2018-03-29T14:14:48.763Z,2.27
2018-03-29T14:17:16.258Z,2.00
2018-03-29T14:19:43.803Z,2.17
2018-03-29T14:22:11.337Z,1.90
2018-03-29T14:24:38.886Z,1.97
2018-03-29T14:27:06.426Z,2.40
2018-03-29T14:29:33.986Z,2.57
2018-03-29T14:32:01.507Z,2.27
2018-03-29T14:34:30.007Z,2.23
2018-03-29T14:36:58.338Z,2.00
2018-03-29T14:39:25.893Z,2.00
2018-03-29T14:41:53.454Z,1.90
2018-03-29T14:44:20.986Z,1.80
2018-03-29T14:46:48.576Z,1.60
2018-03-29T14:49:16.099Z,2.00
2018-03-29T14:51:44.391Z,2.20
2018-03-29T14:54:12.890Z,2.00
2018-03-29T14:56:40.406Z,2.10
2018-03-29T14:59:08.716Z,2.13
2018-03-29T15:01:36.246Z,1.80
2018-03-29T15:04:03.794Z,1.93
2018-03-29T15:06:31.321Z,2.50
2018-03-29T15:08:58.840Z,2.50
2018-03-29T15:11:26.385Z,2.03
2018-03-29T15:13:53.914Z,1.57
2018-03-29T15:16:21.485Z,1.97
2018-03-29T15:18:49.782Z,1.73
2018-03-29T15:21:17.344Z,1.83
2018-03-29T15:23:45.856Z,1.90
2018-03-29T15:26:13.397Z,2.10
2018-03-29T15:28:40.944Z,5.33
2018-03-29T15:31:08.481Z,2.23
2018-03-29T15:33:37.970Z,3.23
2018-03-29T15:36:05.510Z,2.43
2018-03-29T15:38:33.067Z,2.17
2018-03-29T15:41:00.601Z,2.17
2018-03-29T15:43:28.126Z,2.00
2018-03-29T15:45:56.454Z,2.37
2018-03-29T15:48:23.976Z,2.33
2018-03-29T15:50:52.489Z,3.33
2018-03-29T15:53:20.008Z,2.07
2018-03-29T15:55:49.346Z,2.13
2018-03-29T15:58:16.875Z,2.00
2018-03-29T16:00:44.406Z,3.50
2018-03-29T16:03:11.963Z,3.43
2018-03-29T16:05:39.698Z,2.67
2018-03-29T16:08:07.252Z,2.27
2018-03-29T16:10:34.777Z,2.00
2018-03-29T16:13:02.374Z,2.63
2018-03-29T16:15:29.899Z,2.50
2018-03-29T16:17:57.427Z,1.60
2018-03-29T16:20:25.935Z,2.30
2018-03-29T16:22:53.460Z,3.00
2018-03-29T16:25:21.002Z,2.17
2018-03-29T16:27:48.562Z,2.70
2018-03-29T16:30:17.019Z,10.37
2018-03-29T16:32:44.545Z,3.77
2018-03-29T16:35:12.074Z,3.33
2018-03-29T16:37:40.422Z,3.20
2018-03-29T16:40:07.955Z,3.03
2018-03-29T16:42:35.504Z,4.10
2018-03-29T16:45:03.054Z,3.00
2018-03-29T16:47:31.410Z,3.37
2018-03-29T16:49:58.942Z,2.83
2018-03-29T16:52:26.495Z,3.40
2018-03-29T16:54:54.015Z,5.93
2018-03-29T16:57:21.578Z,4.47
2018-03-29T16:59:49.104Z,4.50
2018-03-29T17:02:16.635Z,3.43
2018-03-29T17:04:44.186Z,2.97
2018-03-29T17:07:11.709Z,3.50
2018-03-29T17:09:39.268Z,2.77
2018-03-29T17:12:06.787Z,2.20
2018-03-29T17:14:34.362Z,2.70
2018-03-29T17:17:01.943Z,9.47
2018-03-29T17:19:29.470Z,26.27
2018-03-29T17:21:57.031Z,36.30
2018-03-29T17:24:24.554Z,32.37
2018-03-29T17:26:52.098Z,32.23
2018-03-29T17:29:19.618Z,29.43
2018-03-29T17:31:47.166Z,19.57
2018-03-29T17:34:15.459Z,12.30
2018-03-29T17:36:43.015Z,10.80
2018-03-29T17:39:10.546Z,13.10
2018-03-29T17:41:38.082Z,19.90
2018-03-29T17:44:05.624Z,21.40
2018-03-29T17:46:33.151Z,17.93
2018-03-29T17:49:00.690Z,14.37
2018-03-29T17:51:28.210Z,13.50
2018-03-29T17:53:55.778Z,11.50
2018-03-29T17:56:23.316Z,6.97
2018-03-29T17:58:50.863Z,4.33
2018-03-29T18:01:18.444Z,3.80
2018-03-29T18:03:45.970Z,3.00
2018-03-29T18:06:14.282Z,3.13
2018-03-29T18:08:41.790Z,2.97
2018-03-29T18:11:09.343Z,2.93
2018-03-29T18:13:36.863Z,2.80
2018-03-29T18:16:05.330Z,2.73
2018-03-29T18:18:32.838Z,3.03
2018-03-29T18:21:00.432Z,6.90
2018-03-29T18:23:28.690Z,4.10
2018-03-29T18:25:56.229Z,3.33
2018-03-29T18:28:24.738Z,3.43
2018-03-29T18:30:52.282Z,8.40
2018-03-29T18:33:21.592Z,3.20
2018-03-29T18:35:50.361Z,3.03
2018-03-29T18:38:17.944Z,3.10
2018-03-29T18:40:46.244Z,2.83
2018-03-29T18:43:14.075Z,2.30
2018-03-29T18:45:41.598Z,3.33
2018-03-29T18:48:09.120Z,2.03
2018-03-29T18:50:36.662Z,2.23
2018-03-29T18:53:05.131Z,3.00
2018-03-29T18:55:33.680Z,2.80
2018-03-29T18:58:01.218Z,3.00
2018-03-29T19:00:29.726Z,3.00
2018-03-29T19:02:57.258Z,3.00
2018-03-29T19:05:24.810Z,2.40
2018-03-29T19:07:52.479Z,3.53
2018-03-29T19:10:20.027Z,3.47
2018-03-29T19:12:47.610Z,2.93
2018-03-29T19:15:15.165Z,3.30
2018-03-29T19:17:43.049Z,4.37
2018-03-29T19:20:10.572Z,2.70
2018-03-29T19:22:38.088Z,3.50
2018-03-29T19:25:06.360Z,4.82
2018-03-29T19:27:34.667Z,6.20
2018-03-29T19:30:02.224Z,4.07
2018-03-29T19:32:29.748Z,3.43
2018-03-29T19:34:58.119Z,3.00
2018-03-29T19:37:25.601Z,3.07
2018-03-29T19:39:54.874Z,2.70
2018-03-29T19:42:22.393Z,3.20
2018-03-29T19:44:50.866Z,2.60
2018-03-29T19:47:18.537Z,3.10
2018-03-29T19:49:46.097Z,3.03
2018-03-29T19:52:15.597Z,2.90
2018-03-29T19:54:43.139Z,3.07
2018-03-29T19:57:11.678Z,2.43
2018-03-29T19:59:39.203Z,2.20
2018-03-29T20:02:06.922Z,5.77
2018-03-29T20:04:35.323Z,3.70
2018-03-29T20:07:02.847Z,3.30
2018-03-29T20:09:30.387Z,4.80
2018-03-29T20:11:58.014Z,3.47
2018-03-29T20:14:25.589Z,4.60
2018-03-29T20:16:53.161Z,4.03
2018-03-29T20:19:20.651Z,3.47
2018-03-29T20:21:48.963Z,3.80
2018-03-29T20:24:16.486Z,4.20
2018-03-29T20:26:44.840Z,5.83
2018-03-29T20:29:13.316Z,5.77
2018-03-29T20:31:40.862Z,3.93
2018-03-29T20:34:09.342Z,4.57
2018-03-29T20:36:36.864Z,5.17
2018-03-29T20:39:04.739Z,4.37
2018-03-29T20:41:32.258Z,4.40
2018-03-29T20:43:59.803Z,5.17
2018-03-29T20:46:27.445Z,6.40
2018-03-29T20:48:54.980Z,3.73
2018-03-29T20:51:22.574Z,5.50
2018-03-29T20:53:51.088Z,5.70
2018-03-29T20:56:18.634Z,5.40
2018-03-29T20:58:46.156Z,4.10
2018-03-29T21:01:13.696Z,3.80
2018-03-29T21:03:41.214Z,3.47
2018-03-29T21:06:09.518Z,4.00
2018-03-29T21:08:37.062Z,4.60
2018-03-29T21:11:04.588Z,4.50
2018-03-29T21:13:34.093Z,4.10
2018-03-29T21:16:02.569Z,4.20
2018-03-29T21:18:30.114Z,4.27
2018-03-29T21:20:57.631Z,4.57
2018-03-29T21:23:25.238Z,4.87
2018-03-29T21:25:52.747Z,4.10
2018-03-29T21:28:21.027Z,4.50
2018-03-29T21:30:48.592Z,5.77
2018-03-29T21:33:16.127Z,3.60
2018-03-29T21:35:44.451Z,3.10
2018-03-29T21:38:11.991Z,4.60
2018-03-29T21:40:39.549Z,3.80
2018-03-29T21:43:07.151Z,3.80
2018-03-29T21:45:34.625Z,3.93
2018-03-29T21:48:04.902Z,3.23
2018-03-29T21:50:32.430Z,28.07
2018-03-29T21:52:59.978Z,5.03
2018-03-29T21:55:28.275Z,4.60
2018-03-29T21:57:55.842Z,4.43
2018-03-29T22:00:23.367Z,4.23
2018-03-29T22:02:50.933Z,4.07
2018-03-29T22:05:18.476Z,4.70
2018-03-29T22:07:46.032Z,4.10
2018-03-29T22:10:13.553Z,5.30
2018-03-29T22:12:41.066Z,4.33
2018-03-29T22:15:09.394Z,4.27
2018-03-29T22:17:36.919Z,5.60
2018-03-29T22:20:04.492Z,6.90
2018-03-29T22:22:32.012Z,6.20
2018-03-29T22:25:01.146Z,5.87
2018-03-29T22:27:28.731Z,5.20
2018-03-29T22:29:56.293Z,5.27
2018-03-29T22:32:23.815Z,5.00
2018-03-29T22:34:51.349Z,8.20
2018-03-29T22:37:19.654Z,4.40
2018-03-29T22:39:47.178Z,4.50
2018-03-29T22:42:14.730Z,4.27
2018-03-29T22:44:42.262Z,4.60
2018-03-29T22:47:09.822Z,4.40
2018-03-29T22:49:37.562Z,5.97
2018-03-29T22:52:05.110Z,3.97
2018-03-29T22:54:32.673Z,4.43
2018-03-29T22:57:00.181Z,4.23
2018-03-29T22:59:28.499Z,5.20
2018-03-29T23:01:56.042Z,5.20
2018-03-29T23:04:23.593Z,4.30
2018-03-29T23:06:51.111Z,4.00
2018-03-29T23:09:18.639Z,4.53
2018-03-29T23:11:47.132Z,3.80
2018-03-29T23:14:14.664Z,9.07
2018-03-29T23:16:42.210Z,3.80
2018-03-29T23:19:09.738Z,3.73
2018-03-29T23:21:37.282Z,3.80
2018-03-29T23:24:04.797Z,3.93
2018-03-29T23:26:33.084Z,2.67
2018-03-29T23:29:00.646Z,3.73
2018-03-29T23:31:28.166Z,3.57
2018-03-29T23:33:55.708Z,4.40
2018-03-29T23:36:24.182Z,5.10
2018-03-29T23:38:51.727Z,4.83
2018-03-29T23:41:20.215Z,3.20
2018-03-29T23:43:47.737Z,4.37
2018-03-29T23:46:15.316Z,2.53
2018-03-29T23:48:42.834Z,2.40
2018-03-29T23:51:10.391Z,2.50
2018-03-29T23:53:37.912Z,2.83
2018-03-29T23:56:05.463Z,2.80
2018-03-29T23:58:32.983Z,3.10
